sensor_id;sensor_type;location;lat;lon;timestamp;P1;durP1;ratioP1;P2;durP2;ratioP2
46753;SDS011;32500;50.620;3.400;2023-07-20T00:01:52;90.10;;;54.05;;
46753;SDS011;32500;50.620;3.400;2023-07-20T00:04:18;90.70;;;54.28;;
46753;SDS011;32500;50.620;3.400;2023-07-20T00:06:43;90.50;;;53.90;;
46753;SDS011;32500;50.620;3.400;2023-07-20T00:09:09;90.43;;;54.08;;
46753;SDS011;32500;50.620;3.400;2023-07-20T00:11:37;88.72;;;53.75;;
46753;SDS011;32500;50.620;3.400;2023-07-20T00:14:04;88.25;;;54.05;;
46753;SDS011;32500;50.620;3.400;2023-07-20T00:16:30;90.20;;;53.80;;
46753;SDS011;32500;50.620;3.400;2023-07-20T00:18:55;89.45;;;54.03;;
46753;SDS011;32500;50.620;3.400;2023-07-20T00:21:21;89.32;;;53.95;;
46753;SDS011;32500;50.620;3.400;2023-07-20T00:23:47;89.57;;;53.55;;
46753;SDS011;32500;50.620;3.400;2023-07-20T00:26:12;89.97;;;54.28;;
46753;SDS011;32500;50.620;3.400;2023-07-20T00:28:38;88.65;;;53.53;;
46753;SDS011;32500;50.620;3.400;2023-07-20T00:31:03;91.65;;;53.97;;
46753;SDS011;32500;50.620;3.400;2023-07-20T00:33:29;90.60;;;54.13;;
46753;SDS011;32500;50.620;3.400;2023-07-20T00:35:55;88.78;;;53.75;;
46753;SDS011;32500;50.620;3.400;2023-07-20T00:38:24;88.25;;;53.58;;
46753;SDS011;32500;50.620;3.400;2023-07-20T00:40:50;89.03;;;53.58;;
46753;SDS011;32500;50.620;3.400;2023-07-20T00:43:16;89.28;;;53.83;;
46753;SDS011;32500;50.620;3.400;2023-07-20T00:45:41;88.50;;;53.63;;
46753;SDS011;32500;50.620;3.400;2023-07-20T00:48:08;87.85;;;53.25;;
46753;SDS011;32500;50.620;3.400;2023-07-20T00:50:34;88.88;;;53.80;;
46753;SDS011;32500;50.620;3.400;2023-07-20T00:53:00;90.03;;;53.70;;
46753;SDS011;32500;50.620;3.400;2023-07-20T00:55:28;88.72;;;53.88;;
46753;SDS011;32500;50.620;3.400;2023-07-20T00:57:55;90.75;;;53.75;;
46753;SDS011;32500;50.620;3.400;2023-07-20T01:00:20;88.82;;;53.72;;
46753;SDS011;32500;50.620;3.400;2023-07-20T01:02:46;88.45;;;53.50;;
46753;SDS011;32500;50.620;3.400;2023-07-20T01:05:12;88.90;;;53.55;;
46753;SDS011;32500;50.620;3.400;2023-07-20T01:07:39;89.05;;;53.45;;
46753;SDS011;32500;50.620;3.400;2023-07-20T01:10:35;88.95;;;53.70;;
46753;SDS011;32500;50.620;3.400;2023-07-20T01:13:09;88.05;;;53.63;;
46753;SDS011;32500;50.620;3.400;2023-07-20T01:15:36;90.68;;;53.88;;
46753;SDS011;32500;50.620;3.400;2023-07-20T01:18:01;88.70;;;53.88;;
46753;SDS011;32500;50.620;3.400;2023-07-20T01:20:29;89.05;;;53.70;;
46753;SDS011;32500;50.620;3.400;2023-07-20T01:23:03;88.78;;;53.88;;
46753;SDS011;32500;50.620;3.400;2023-07-20T01:25:54;88.55;;;53.88;;
46753;SDS011;32500;50.620;3.400;2023-07-20T01:31:30;88.95;;;53.47;;
46753;SDS011;32500;50.620;3.400;2023-07-20T01:33:58;88.80;;;53.63;;
46753;SDS011;32500;50.620;3.400;2023-07-20T01:36:27;89.57;;;53.85;;
46753;SDS011;32500;50.620;3.400;2023-07-20T01:38:55;89.43;;;53.72;;
46753;SDS011;32500;50.620;3.400;2023-07-20T01:41:21;88.50;;;53.78;;
46753;SDS011;32500;50.620;3.400;2023-07-20T01:43:48;90.40;;;53.72;;
46753;SDS011;32500;50.620;3.400;2023-07-20T01:46:13;91.35;;;53.53;;
46753;SDS011;32500;50.620;3.400;2023-07-20T01:48:39;89.32;;;53.88;;
46753;SDS011;32500;50.620;3.400;2023-07-20T01:51:05;90.78;;;53.70;;
46753;SDS011;32500;50.620;3.400;2023-07-20T01:53:30;90.50;;;53.92;;
46753;SDS011;32500;50.620;3.400;2023-07-20T01:55:56;88.78;;;53.67;;
46753;SDS011;32500;50.620;3.400;2023-07-20T01:58:22;88.70;;;53.85;;
46753;SDS011;32500;50.620;3.400;2023-07-20T02:00:48;88.90;;;53.53;;
46753;SDS011;32500;50.620;3.400;2023-07-20T02:03:14;91.40;;;54.17;;
46753;SDS011;32500;50.620;3.400;2023-07-20T02:05:39;88.75;;;53.58;;
46753;SDS011;32500;50.620;3.400;2023-07-20T02:08:07;88.82;;;53.92;;
46753;SDS011;32500;50.620;3.400;2023-07-20T02:10:33;88.55;;;53.53;;
46753;SDS011;32500;50.620;3.400;2023-07-20T02:12:59;89.88;;;53.50;;
46753;SDS011;32500;50.620;3.400;2023-07-20T02:15:24;88.65;;;53.30;;
46753;SDS011;32500;50.620;3.400;2023-07-20T02:17:50;89.25;;;54.20;;
46753;SDS011;32500;50.620;3.400;2023-07-20T02:20:16;88.60;;;53.63;;
46753;SDS011;32500;50.620;3.400;2023-07-20T02:22:43;89.32;;;53.95;;
46753;SDS011;32500;50.620;3.400;2023-07-20T02:25:08;88.85;;;53.90;;
46753;SDS011;32500;50.620;3.400;2023-07-20T02:27:34;90.47;;;53.88;;
46753;SDS011;32500;50.620;3.400;2023-07-20T02:30:00;90.00;;;53.95;;
46753;SDS011;32500;50.620;3.400;2023-07-20T02:32:26;90.80;;;53.80;;
46753;SDS011;32500;50.620;3.400;2023-07-20T02:34:51;88.57;;;53.72;;
46753;SDS011;32500;50.620;3.400;2023-07-20T02:37:17;90.13;;;53.88;;
46753;SDS011;32500;50.620;3.400;2023-07-20T02:39:43;91.93;;;54.03;;
46753;SDS011;32500;50.620;3.400;2023-07-20T02:42:08;88.25;;;53.88;;
46753;SDS011;32500;50.620;3.400;2023-07-20T02:44:34;88.78;;;54.10;;
46753;SDS011;32500;50.620;3.400;2023-07-20T02:46:59;88.32;;;53.75;;
46753;SDS011;32500;50.620;3.400;2023-07-20T02:49:25;90.10;;;54.05;;
46753;SDS011;32500;50.620;3.400;2023-07-20T02:51:51;89.63;;;54.28;;
46753;SDS011;32500;50.620;3.400;2023-07-20T02:54:17;89.05;;;53.92;;
46753;SDS011;32500;50.620;3.400;2023-07-20T02:56:43;88.57;;;53.47;;
46753;SDS011;32500;50.620;3.400;2023-07-20T02:59:08;88.93;;;53.70;;
46753;SDS011;32500;50.620;3.400;2023-07-20T03:01:34;90.28;;;54.35;;
46753;SDS011;32500;50.620;3.400;2023-07-20T03:04:00;88.38;;;54.00;;
46753;SDS011;32500;50.620;3.400;2023-07-20T03:06:25;90.45;;;53.85;;
46753;SDS011;32500;50.620;3.400;2023-07-20T03:08:51;88.57;;;53.67;;
46753;SDS011;32500;50.620;3.400;2023-07-20T03:11:18;88.80;;;53.90;;
46753;SDS011;32500;50.620;3.400;2023-07-20T03:13:45;87.13;;;53.65;;
46753;SDS011;32500;50.620;3.400;2023-07-20T03:16:12;89.55;;;53.72;;
46753;SDS011;32500;50.620;3.400;2023-07-20T03:18:40;89.40;;;54.13;;
46753;SDS011;32500;50.620;3.400;2023-07-20T03:21:07;88.78;;;53.80;;
46753;SDS011;32500;50.620;3.400;2023-07-20T03:23:33;90.22;;;53.72;;
46753;SDS011;32500;50.620;3.400;2023-07-20T03:25:59;88.88;;;53.75;;
46753;SDS011;32500;50.620;3.400;2023-07-20T03:28:25;91.07;;;53.97;;
46753;SDS011;32500;50.620;3.400;2023-07-20T03:30:54;91.63;;;54.30;;
46753;SDS011;32500;50.620;3.400;2023-07-20T03:33:24;89.60;;;53.85;;
46753;SDS011;32500;50.620;3.400;2023-07-20T03:35:50;89.78;;;54.03;;
46753;SDS011;32500;50.620;3.400;2023-07-20T03:38:16;88.53;;;53.38;;
46753;SDS011;32500;50.620;3.400;2023-07-20T03:43:22;88.85;;;54.22;;
46753;SDS011;32500;50.620;3.400;2023-07-20T03:45:48;88.47;;;53.83;;
46753;SDS011;32500;50.620;3.400;2023-07-20T03:48:18;89.00;;;53.78;;
46753;SDS011;32500;50.620;3.400;2023-07-20T03:50:45;88.75;;;54.22;;
46753;SDS011;32500;50.620;3.400;2023-07-20T03:53:11;88.38;;;53.35;;
46753;SDS011;32500;50.620;3.400;2023-07-20T03:55:37;89.70;;;54.05;;
46753;SDS011;32500;50.620;3.400;2023-07-20T03:58:03;87.85;;;53.65;;
46753;SDS011;32500;50.620;3.400;2023-07-20T04:00:29;89.93;;;54.05;;
46753;SDS011;32500;50.620;3.400;2023-07-20T04:02:54;87.80;;;54.03;;
46753;SDS011;32500;50.620;3.400;2023-07-20T04:05:20;87.78;;;53.80;;
46753;SDS011;32500;50.620;3.400;2023-07-20T04:07:46;90.88;;;54.10;;
46753;SDS011;32500;50.620;3.400;2023-07-20T04:10:12;91.30;;;54.40;;
46753;SDS011;32500;50.620;3.400;2023-07-20T04:12:37;89.05;;;53.78;;
46753;SDS011;32500;50.620;3.400;2023-07-20T04:15:03;87.65;;;53.83;;
46753;SDS011;32500;50.620;3.400;2023-07-20T04:17:29;89.00;;;53.88;;
46753;SDS011;32500;50.620;3.400;2023-07-20T04:19:55;87.80;;;53.88;;
46753;SDS011;32500;50.620;3.400;2023-07-20T04:22:20;89.22;;;53.90;;
46753;SDS011;32500;50.620;3.400;2023-07-20T04:24:46;89.03;;;54.03;;
46753;SDS011;32500;50.620;3.400;2023-07-20T04:27:12;88.05;;;53.78;;
46753;SDS011;32500;50.620;3.400;2023-07-20T04:29:37;89.05;;;54.03;;
46753;SDS011;32500;50.620;3.400;2023-07-20T04:32:03;87.70;;;53.58;;
46753;SDS011;32500;50.620;3.400;2023-07-20T04:34:29;88.53;;;54.03;;
46753;SDS011;32500;50.620;3.400;2023-07-20T04:36:54;89.45;;;53.92;;
46753;SDS011;32500;50.620;3.400;2023-07-20T04:39:20;88.93;;;54.13;;
46753;SDS011;32500;50.620;3.400;2023-07-20T04:41:46;88.82;;;53.60;;
46753;SDS011;32500;50.620;3.400;2023-07-20T04:44:12;86.20;;;53.60;;
46753;SDS011;32500;50.620;3.400;2023-07-20T04:46:39;89.05;;;53.75;;
46753;SDS011;32500;50.620;3.400;2023-07-20T04:49:05;88.80;;;53.95;;
46753;SDS011;32500;50.620;3.400;2023-07-20T04:51:31;89.38;;;53.65;;
46753;SDS011;32500;50.620;3.400;2023-07-20T04:53:57;88.80;;;53.80;;
46753;SDS011;32500;50.620;3.400;2023-07-20T04:56:22;88.93;;;54.08;;
46753;SDS011;32500;50.620;3.400;2023-07-20T04:58:49;87.63;;;54.10;;
46753;SDS011;32500;50.620;3.400;2023-07-20T05:01:15;89.15;;;54.00;;
46753;SDS011;32500;50.620;3.400;2023-07-20T05:03:40;87.65;;;53.47;;
46753;SDS011;32500;50.620;3.400;2023-07-20T05:06:06;88.57;;;54.13;;
46753;SDS011;32500;50.620;3.400;2023-07-20T05:08:32;88.50;;;54.15;;
46753;SDS011;32500;50.620;3.400;2023-07-20T05:10:58;88.78;;;53.92;;
46753;SDS011;32500;50.620;3.400;2023-07-20T05:13:24;90.47;;;54.35;;
46753;SDS011;32500;50.620;3.400;2023-07-20T05:15:51;88.90;;;53.80;;
46753;SDS011;32500;50.620;3.400;2023-07-20T05:18:17;89.85;;;54.13;;
46753;SDS011;32500;50.620;3.400;2023-07-20T05:20:45;89.00;;;54.67;;
46753;SDS011;32500;50.620;3.400;2023-07-20T05:23:12;88.47;;;54.08;;
46753;SDS011;32500;50.620;3.400;2023-07-20T05:25:38;89.10;;;53.97;;
46753;SDS011;32500;50.620;3.400;2023-07-20T05:28:03;89.97;;;54.45;;
46753;SDS011;32500;50.620;3.400;2023-07-20T05:30:29;88.68;;;54.00;;
46753;SDS011;32500;50.620;3.400;2023-07-20T05:32:55;89.05;;;54.30;;
46753;SDS011;32500;50.620;3.400;2023-07-20T05:35:20;89.88;;;54.35;;
46753;SDS011;32500;50.620;3.400;2023-07-20T05:37:49;88.00;;;53.78;;
46753;SDS011;32500;50.620;3.400;2023-07-20T05:40:17;88.90;;;54.25;;
46753;SDS011;32500;50.620;3.400;2023-07-20T05:42:44;88.57;;;53.97;;
46753;SDS011;32500;50.620;3.400;2023-07-20T05:45:12;87.75;;;54.03;;
46753;SDS011;32500;50.620;3.400;2023-07-20T05:47:37;88.68;;;54.17;;
46753;SDS011;32500;50.620;3.400;2023-07-20T05:50:03;89.03;;;54.10;;
46753;SDS011;32500;50.620;3.400;2023-07-20T05:52:29;90.30;;;54.25;;
46753;SDS011;32500;50.620;3.400;2023-07-20T05:54:55;89.80;;;54.78;;
46753;SDS011;32500;50.620;3.400;2023-07-20T05:57:20;90.10;;;54.25;;
46753;SDS011;32500;50.620;3.400;2023-07-20T05:59:46;87.95;;;54.10;;
46753;SDS011;32500;50.620;3.400;2023-07-20T06:02:12;90.15;;;54.63;;
46753;SDS011;32500;50.620;3.400;2023-07-20T06:04:38;89.82;;;54.40;;
46753;SDS011;32500;50.620;3.400;2023-07-20T06:07:04;90.03;;;54.65;;
46753;SDS011;32500;50.620;3.400;2023-07-20T06:09:30;89.25;;;54.40;;
46753;SDS011;32500;50.620;3.400;2023-07-20T06:11:56;90.80;;;54.90;;
46753;SDS011;32500;50.620;3.400;2023-07-20T06:14:22;88.10;;;54.33;;
46753;SDS011;32500;50.620;3.400;2023-07-20T06:16:47;91.68;;;54.63;;
46753;SDS011;32500;50.620;3.400;2023-07-20T06:19:13;89.43;;;54.92;;
46753;SDS011;32500;50.620;3.400;2023-07-20T06:21:39;88.45;;;54.40;;
46753;SDS011;32500;50.620;3.400;2023-07-20T06:24:05;92.38;;;55.05;;
46753;SDS011;32500;50.620;3.400;2023-07-20T06:26:30;91.38;;;55.20;;
46753;SDS011;32500;50.620;3.400;2023-07-20T06:28:57;92.03;;;54.80;;
46753;SDS011;32500;50.620;3.400;2023-07-20T06:31:23;87.53;;;53.78;;
46753;SDS011;32500;50.620;3.400;2023-07-20T06:33:48;88.82;;;54.08;;
46753;SDS011;32500;50.620;3.400;2023-07-20T06:36:17;90.57;;;53.97;;
46753;SDS011;32500;50.620;3.400;2023-07-20T06:38:43;89.93;;;54.53;;
46753;SDS011;32500;50.620;3.400;2023-07-20T06:41:08;89.72;;;54.80;;
46753;SDS011;32500;50.620;3.400;2023-07-20T06:43:34;89.20;;;54.00;;
46753;SDS011;32500;50.620;3.400;2023-07-20T06:46:00;90.53;;;54.90;;
46753;SDS011;32500;50.620;3.400;2023-07-20T06:48:25;89.90;;;54.63;;
46753;SDS011;32500;50.620;3.400;2023-07-20T06:50:51;89.63;;;54.47;;
46753;SDS011;32500;50.620;3.400;2023-07-20T06:53:17;92.43;;;55.13;;
46753;SDS011;32500;50.620;3.400;2023-07-20T06:55:42;88.88;;;54.28;;
46753;SDS011;32500;50.620;3.400;2023-07-20T06:58:09;89.88;;;54.70;;
46753;SDS011;32500;50.620;3.400;2023-07-20T07:00:35;90.20;;;55.03;;
46753;SDS011;32500;50.620;3.400;2023-07-20T07:03:00;89.88;;;54.38;;
46753;SDS011;32500;50.620;3.400;2023-07-20T07:05:27;90.05;;;54.58;;
46753;SDS011;32500;50.620;3.400;2023-07-20T07:07:53;90.55;;;54.63;;
46753;SDS011;32500;50.620;3.400;2023-07-20T07:10:18;91.40;;;54.40;;
46753;SDS011;32500;50.620;3.400;2023-07-20T07:12:44;90.18;;;54.17;;
46753;SDS011;32500;50.620;3.400;2023-07-20T07:15:10;90.65;;;54.70;;
46753;SDS011;32500;50.620;3.400;2023-07-20T07:17:38;89.45;;;54.30;;
46753;SDS011;32500;50.620;3.400;2023-07-20T07:20:04;90.70;;;54.97;;
46753;SDS011;32500;50.620;3.400;2023-07-20T07:22:30;89.25;;;54.22;;
46753;SDS011;32500;50.620;3.400;2023-07-20T07:24:56;89.82;;;54.58;;
46753;SDS011;32500;50.620;3.400;2023-07-20T07:27:22;89.82;;;54.67;;
46753;SDS011;32500;50.620;3.400;2023-07-20T07:29:47;90.25;;;54.72;;
46753;SDS011;32500;50.620;3.400;2023-07-20T07:32:14;91.05;;;54.33;;
46753;SDS011;32500;50.620;3.400;2023-07-20T07:34:40;90.28;;;55.05;;
46753;SDS011;32500;50.620;3.400;2023-07-20T07:37:06;91.07;;;54.45;;
46753;SDS011;32500;50.620;3.400;2023-07-20T07:39:32;89.28;;;54.17;;
46753;SDS011;32500;50.620;3.400;2023-07-20T07:41:58;90.78;;;54.78;;
46753;SDS011;32500;50.620;3.400;2023-07-20T07:44:23;93.22;;;55.65;;
46753;SDS011;32500;50.620;3.400;2023-07-20T07:46:49;92.72;;;55.60;;
46753;SDS011;32500;50.620;3.400;2023-07-20T07:49:15;96.57;;;56.15;;
46753;SDS011;32500;50.620;3.400;2023-07-20T07:51:42;93.57;;;55.47;;
46753;SDS011;32500;50.620;3.400;2023-07-20T07:54:07;93.15;;;55.90;;
46753;SDS011;32500;50.620;3.400;2023-07-20T07:56:33;94.80;;;55.22;;
46753;SDS011;32500;50.620;3.400;2023-07-20T07:58:58;91.47;;;54.85;;
46753;SDS011;32500;50.620;3.400;2023-07-20T08:01:24;90.55;;;55.17;;
46753;SDS011;32500;50.620;3.400;2023-07-20T08:03:50;90.85;;;54.65;;
46753;SDS011;32500;50.620;3.400;2023-07-20T08:06:16;91.85;;;54.70;;
46753;SDS011;32500;50.620;3.400;2023-07-20T08:08:41;90.53;;;54.65;;
46753;SDS011;32500;50.620;3.400;2023-07-20T08:11:07;91.18;;;54.53;;
46753;SDS011;32500;50.620;3.400;2023-07-20T08:13:33;90.72;;;54.58;;
46753;SDS011;32500;50.620;3.400;2023-07-20T08:15:59;92.00;;;54.50;;
46753;SDS011;32500;50.620;3.400;2023-07-20T08:18:27;94.00;;;54.92;;
46753;SDS011;32500;50.620;3.400;2023-07-20T08:20:53;92.43;;;55.08;;
46753;SDS011;32500;50.620;3.400;2023-07-20T08:23:19;92.63;;;55.30;;
46753;SDS011;32500;50.620;3.400;2023-07-20T08:25:44;91.47;;;55.13;;
46753;SDS011;32500;50.620;3.400;2023-07-20T08:28:10;90.70;;;54.50;;
46753;SDS011;32500;50.620;3.400;2023-07-20T08:30:41;92.03;;;55.03;;
46753;SDS011;32500;50.620;3.400;2023-07-20T08:33:08;90.50;;;54.67;;
46753;SDS011;32500;50.620;3.400;2023-07-20T08:35:34;89.78;;;54.58;;
46753;SDS011;32500;50.620;3.400;2023-07-20T08:38:00;90.90;;;54.72;;
46753;SDS011;32500;50.620;3.400;2023-07-20T08:40:25;93.00;;;55.28;;
46753;SDS011;32500;50.620;3.400;2023-07-20T08:42:51;89.82;;;54.35;;
46753;SDS011;32500;50.620;3.400;2023-07-20T08:45:19;91.20;;;54.80;;
46753;SDS011;32500;50.620;3.400;2023-07-20T08:47:47;90.93;;;54.55;;
46753;SDS011;32500;50.620;3.400;2023-07-20T08:50:14;92.82;;;55.13;;
46753;SDS011;32500;50.620;3.400;2023-07-20T08:52:41;91.00;;;54.88;;
46753;SDS011;32500;50.620;3.400;2023-07-20T08:55:07;95.00;;;55.13;;
46753;SDS011;32500;50.620;3.400;2023-07-20T08:57:33;89.88;;;54.35;;
46753;SDS011;32500;50.620;3.400;2023-07-20T09:00:02;90.72;;;54.92;;
46753;SDS011;32500;50.620;3.400;2023-07-20T09:02:38;91.53;;;55.05;;
46753;SDS011;32500;50.620;3.400;2023-07-20T09:05:07;94.57;;;55.50;;
46753;SDS011;32500;50.620;3.400;2023-07-20T09:07:35;91.45;;;55.33;;
46753;SDS011;32500;50.620;3.400;2023-07-20T09:10:01;91.35;;;55.05;;
46753;SDS011;32500;50.620;3.400;2023-07-20T09:12:31;91.90;;;55.38;;
46753;SDS011;32500;50.620;3.400;2023-07-20T09:14:59;91.82;;;55.15;;
46753;SDS011;32500;50.620;3.400;2023-07-20T09:17:25;91.72;;;55.67;;
46753;SDS011;32500;50.620;3.400;2023-07-20T09:19:51;91.03;;;54.90;;
46753;SDS011;32500;50.620;3.400;2023-07-20T09:22:17;91.55;;;55.35;;
46753;SDS011;32500;50.620;3.400;2023-07-20T09:24:43;90.82;;;55.20;;
46753;SDS011;32500;50.620;3.400;2023-07-20T09:27:09;93.90;;;55.83;;
46753;SDS011;32500;50.620;3.400;2023-07-20T09:29:46;107.55;;;59.90;;
46753;SDS011;32500;50.620;3.400;2023-07-20T09:32:19;116.03;;;62.65;;
46753;SDS011;32500;50.620;3.400;2023-07-20T09:34:45;107.32;;;61.08;;
46753;SDS011;32500;50.620;3.400;2023-07-20T09:37:11;99.75;;;58.13;;
46753;SDS011;32500;50.620;3.400;2023-07-20T09:39:44;101.43;;;58.72;;
46753;SDS011;32500;50.620;3.400;2023-07-20T09:42:11;96.45;;;57.35;;
46753;SDS011;32500;50.620;3.400;2023-07-20T09:44:38;102.45;;;59.03;;
46753;SDS011;32500;50.620;3.400;2023-07-20T09:47:04;98.65;;;57.45;;
46753;SDS011;32500;50.620;3.400;2023-07-20T09:49:30;100.78;;;59.15;;
46753;SDS011;32500;50.620;3.400;2023-07-20T09:51:57;99.97;;;57.92;;
46753;SDS011;32500;50.620;3.400;2023-07-20T09:54:25;103.38;;;59.35;;
46753;SDS011;32500;50.620;3.400;2023-07-20T09:56:53;98.22;;;58.28;;
46753;SDS011;32500;50.620;3.400;2023-07-20T09:59:19;98.38;;;58.35;;
46753;SDS011;32500;50.620;3.400;2023-07-20T10:01:45;103.47;;;59.38;;
46753;SDS011;32500;50.620;3.400;2023-07-20T10:04:12;96.82;;;57.42;;
46753;SDS011;32500;50.620;3.400;2023-07-20T10:06:42;99.55;;;58.38;;
46753;SDS011;32500;50.620;3.400;2023-07-20T10:09:12;101.80;;;59.00;;
46753;SDS011;32500;50.620;3.400;2023-07-20T10:11:40;104.25;;;58.75;;
46753;SDS011;32500;50.620;3.400;2023-07-20T10:14:14;98.50;;;58.33;;
46753;SDS011;32500;50.620;3.400;2023-07-20T10:16:53;96.70;;;58.40;;
46753;SDS011;32500;50.620;3.400;2023-07-20T10:19:27;96.95;;;58.20;;
46753;SDS011;32500;50.620;3.400;2023-07-20T10:22:14;98.80;;;57.92;;
46753;SDS011;32500;50.620;3.400;2023-07-20T10:24:45;96.93;;;57.88;;
46753;SDS011;32500;50.620;3.400;2023-07-20T10:27:13;99.03;;;58.43;;
46753;SDS011;32500;50.620;3.400;2023-07-20T10:29:39;96.10;;;57.72;;
46753;SDS011;32500;50.620;3.400;2023-07-20T10:32:06;98.78;;;58.70;;
46753;SDS011;32500;50.620;3.400;2023-07-20T10:34:33;96.05;;;57.38;;
46753;SDS011;32500;50.620;3.400;2023-07-20T10:36:58;95.60;;;57.72;;
46753;SDS011;32500;50.620;3.400;2023-07-20T10:39:25;96.82;;;57.60;;
46753;SDS011;32500;50.620;3.400;2023-07-20T10:42:02;95.03;;;57.15;;
46753;SDS011;32500;50.620;3.400;2023-07-20T10:44:31;93.97;;;56.75;;
46753;SDS011;32500;50.620;3.400;2023-07-20T10:47:00;96.93;;;57.10;;
46753;SDS011;32500;50.620;3.400;2023-07-20T10:49:27;94.65;;;56.92;;
46753;SDS011;32500;50.620;3.400;2023-07-20T10:51:57;95.18;;;57.22;;
46753;SDS011;32500;50.620;3.400;2023-07-20T10:56:52;96.20;;;57.80;;
46753;SDS011;32500;50.620;3.400;2023-07-20T10:59:20;95.55;;;57.30;;
46753;SDS011;32500;50.620;3.400;2023-07-20T11:02:06;96.45;;;57.28;;
46753;SDS011;32500;50.620;3.400;2023-07-20T11:04:39;98.65;;;57.33;;
46753;SDS011;32500;50.620;3.400;2023-07-20T11:07:05;95.35;;;56.85;;
46753;SDS011;32500;50.620;3.400;2023-07-20T11:09:35;95.07;;;56.75;;
46753;SDS011;32500;50.620;3.400;2023-07-20T11:12:15;99.38;;;57.38;;
46753;SDS011;32500;50.620;3.400;2023-07-20T11:14:42;93.40;;;56.38;;
46753;SDS011;32500;50.620;3.400;2023-07-20T11:17:19;94.45;;;56.85;;
46753;SDS011;32500;50.620;3.400;2023-07-20T11:19:54;95.35;;;56.17;;
46753;SDS011;32500;50.620;3.400;2023-07-20T11:22:21;92.93;;;56.15;;
46753;SDS011;32500;50.620;3.400;2023-07-20T11:24:47;96.25;;;56.75;;
46753;SDS011;32500;50.620;3.400;2023-07-20T11:27:14;94.05;;;56.40;;
46753;SDS011;32500;50.620;3.400;2023-07-20T11:29:40;94.20;;;56.45;;
46753;SDS011;32500;50.620;3.400;2023-07-20T11:32:06;93.57;;;56.55;;
46753;SDS011;32500;50.620;3.400;2023-07-20T11:34:32;93.43;;;56.25;;
46753;SDS011;32500;50.620;3.400;2023-07-20T11:36:58;92.50;;;56.35;;
46753;SDS011;32500;50.620;3.400;2023-07-20T11:39:24;94.53;;;56.70;;
46753;SDS011;32500;50.620;3.400;2023-07-20T11:41:51;100.20;;;56.45;;
46753;SDS011;32500;50.620;3.400;2023-07-20T11:44:18;94.00;;;56.53;;
46753;SDS011;32500;50.620;3.400;2023-07-20T11:46:46;93.75;;;56.50;;
46753;SDS011;32500;50.620;3.400;2023-07-20T11:49:11;94.47;;;56.70;;
46753;SDS011;32500;50.620;3.400;2023-07-20T11:51:38;93.22;;;56.33;;
46753;SDS011;32500;50.620;3.400;2023-07-20T11:54:05;93.53;;;56.20;;
46753;SDS011;32500;50.620;3.400;2023-07-20T11:56:32;93.32;;;56.25;;
46753;SDS011;32500;50.620;3.400;2023-07-20T11:58:58;95.00;;;56.67;;
46753;SDS011;32500;50.620;3.400;2023-07-20T12:01:25;96.80;;;56.72;;
46753;SDS011;32500;50.620;3.400;2023-07-20T12:03:57;94.63;;;56.72;;
46753;SDS011;32500;50.620;3.400;2023-07-20T12:06:24;94.95;;;56.72;;
46753;SDS011;32500;50.620;3.400;2023-07-20T12:08:51;93.60;;;56.58;;
46753;SDS011;32500;50.620;3.400;2023-07-20T12:11:36;93.85;;;56.45;;
46753;SDS011;32500;50.620;3.400;2023-07-20T12:14:03;93.55;;;56.22;;
46753;SDS011;32500;50.620;3.400;2023-07-20T12:16:32;92.88;;;56.50;;
46753;SDS011;32500;50.620;3.400;2023-07-20T12:19:08;92.60;;;56.25;;
46753;SDS011;32500;50.620;3.400;2023-07-20T12:21:38;95.60;;;56.38;;
46753;SDS011;32500;50.620;3.400;2023-07-20T12:24:06;92.65;;;56.22;;
46753;SDS011;32500;50.620;3.400;2023-07-20T12:26:32;94.50;;;56.17;;
46753;SDS011;32500;50.620;3.400;2023-07-20T12:28:58;93.00;;;56.35;;
46753;SDS011;32500;50.620;3.400;2023-07-20T12:31:25;95.70;;;56.65;;
46753;SDS011;32500;50.620;3.400;2023-07-20T12:33:51;92.60;;;56.17;;
46753;SDS011;32500;50.620;3.400;2023-07-20T12:36:18;95.00;;;56.65;;
46753;SDS011;32500;50.620;3.400;2023-07-20T12:38:44;93.50;;;56.47;;
46753;SDS011;32500;50.620;3.400;2023-07-20T12:41:10;93.15;;;56.33;;
46753;SDS011;32500;50.620;3.400;2023-07-20T12:43:40;95.03;;;56.63;;
46753;SDS011;32500;50.620;3.400;2023-07-20T12:46:07;93.45;;;56.22;;
46753;SDS011;32500;50.620;3.400;2023-07-20T12:48:33;93.38;;;56.65;;
46753;SDS011;32500;50.620;3.400;2023-07-20T12:50:58;93.47;;;56.58;;
46753;SDS011;32500;50.620;3.400;2023-07-20T12:53:24;128.07;;;59.47;;
46753;SDS011;32500;50.620;3.400;2023-07-20T12:55:50;105.30;;;57.42;;
46753;SDS011;32500;50.620;3.400;2023-07-20T12:58:15;102.03;;;56.60;;
46753;SDS011;32500;50.620;3.400;2023-07-20T13:00:41;97.10;;;56.50;;
46753;SDS011;32500;50.620;3.400;2023-07-20T13:03:06;95.00;;;56.67;;
46753;SDS011;32500;50.620;3.400;2023-07-20T13:05:33;96.30;;;56.72;;
46753;SDS011;32500;50.620;3.400;2023-07-20T13:08:00;99.80;;;57.08;;
46753;SDS011;32500;50.620;3.400;2023-07-20T13:10:27;96.07;;;56.70;;
46753;SDS011;32500;50.620;3.400;2023-07-20T13:12:53;97.65;;;57.05;;
46753;SDS011;32500;50.620;3.400;2023-07-20T13:15:19;95.40;;;56.70;;
46753;SDS011;32500;50.620;3.400;2023-07-20T13:17:45;95.93;;;56.75;;
46753;SDS011;32500;50.620;3.400;2023-07-20T13:20:11;96.85;;;56.67;;
46753;SDS011;32500;50.620;3.400;2023-07-20T13:22:37;93.63;;;56.75;;
46753;SDS011;32500;50.620;3.400;2023-07-20T13:25:03;95.40;;;56.30;;
46753;SDS011;32500;50.620;3.400;2023-07-20T13:27:29;93.72;;;56.45;;
46753;SDS011;32500;50.620;3.400;2023-07-20T13:29:56;94.30;;;56.83;;
46753;SDS011;32500;50.620;3.400;2023-07-20T13:32:22;93.72;;;56.35;;
46753;SDS011;32500;50.620;3.400;2023-07-20T13:34:48;95.30;;;56.42;;
46753;SDS011;32500;50.620;3.400;2023-07-20T13:37:14;95.60;;;56.63;;
46753;SDS011;32500;50.620;3.400;2023-07-20T13:39:41;94.60;;;56.25;;
46753;SDS011;32500;50.620;3.400;2023-07-20T13:42:07;94.22;;;56.35;;
46753;SDS011;32500;50.620;3.400;2023-07-20T13:44:34;94.63;;;56.15;;
46753;SDS011;32500;50.620;3.400;2023-07-20T13:47:00;96.20;;;56.60;;
46753;SDS011;32500;50.620;3.400;2023-07-20T13:49:26;94.72;;;56.38;;
46753;SDS011;32500;50.620;3.400;2023-07-20T13:51:52;95.07;;;56.55;;
46753;SDS011;32500;50.620;3.400;2023-07-20T13:54:17;92.90;;;55.95;;
46753;SDS011;32500;50.620;3.400;2023-07-20T13:56:43;93.88;;;56.05;;
46753;SDS011;32500;50.620;3.400;2023-07-20T13:59:09;92.50;;;55.90;;
46753;SDS011;32500;50.620;3.400;2023-07-20T14:01:34;94.07;;;56.03;;
46753;SDS011;32500;50.620;3.400;2023-07-20T14:04:00;93.93;;;55.97;;
46753;SDS011;32500;50.620;3.400;2023-07-20T14:06:29;92.43;;;55.35;;
46753;SDS011;32500;50.620;3.400;2023-07-20T14:08:56;92.72;;;55.60;;
46753;SDS011;32500;50.620;3.400;2023-07-20T14:11:23;94.45;;;56.35;;
46753;SDS011;32500;50.620;3.400;2023-07-20T14:13:49;93.15;;;55.85;;
46753;SDS011;32500;50.620;3.400;2023-07-20T14:16:15;92.57;;;55.50;;
46753;SDS011;32500;50.620;3.400;2023-07-20T14:18:41;91.18;;;55.38;;
46753;SDS011;32500;50.620;3.400;2023-07-20T14:21:07;92.05;;;55.05;;
46753;SDS011;32500;50.620;3.400;2023-07-20T14:23:33;92.85;;;55.33;;
46753;SDS011;32500;50.620;3.400;2023-07-20T14:25:58;93.95;;;55.72;;
46753;SDS011;32500;50.620;3.400;2023-07-20T14:28:24;93.85;;;55.53;;